Nearby METAR (Airport) Reports

 

KPRN - Greenville, Alabama, USA
Distance from station: WNW 17mi, 28km
Updated: Tue, 14-Aug-2018 2:56am CDT
Mist, Clear
Mist, Clear
 Wind from SSE
Wind: SSE 3 mph , 6 km/h
Temperature: 72°F , 22°C
Dew Point: 70°F , 21°C
Humidity: 94%
Barometer: 30.01 inHg , 1016.3 hPa
Summary: Mist
Clouds: Clear
Visibility: 5 miles , 8 km
2018/08/14 07:56 KPRN 140756Z AUTO 15003KT 5SM BR CLR 22/21 A3001 RMK AO2 SLP157 T02220206
KTOI - Troy, Alabama, USA
Distance from station: ENE 21mi, 34km
Updated: Tue, 14-Aug-2018 2:53am CDT
Clear
Clear
 Wind from calm
Wind: Calm
Temperature: 72°F , 22°C
Dew Point: 70°F , 21°C
Humidity: 94%
Barometer: 30.02 inHg , 1016.6 hPa
Clouds: Clear
Visibility: 8 miles , 13 km
2018/08/14 07:53 KTOI 140753Z AUTO 00000KT 8SM CLR 22/21 A3002 RMK AO2 SLP158 T02170206
K79J - Andalusia/Opp Ar, Alabama, USA
Distance from station: S 29mi, 47km
Updated: Tue, 14-Aug-2018 2:56am CDT
Clear
Clear
 Wind from calm
Wind: Calm
Temperature: 75°F , 24°C
Dew Point: 72°F , 22°C
Humidity: 89%
Barometer: 30.02 inHg , 1016.6 hPa
Clouds: Clear
Visibility: 9 miles , 14 km
2018/08/14 07:56 K79J 140756Z AUTO 00000KT 9SM CLR 24/22 A3002 RMK AO2 SLP160 T02440222
 
KMGM - Montgomery, Alabama, USA
Distance from station: N 39mi, 63km
Updated: Tue, 14-Aug-2018 2:53am CDT
Mist, Clear
Mist, Clear
 Wind from S
Wind: S 3 mph , 6 km/h
Temperature: 73°F , 23°C
Dew Point: 73°F , 23°C
Humidity: 100%
Barometer: 30.01 inHg , 1016.3 hPa
Summary: Mist
Clouds: Clear
Visibility: 5 miles , 8 km
2018/08/14 07:53 KMGM 140753Z AUTO 18003KT 5SM BR CLR 23/23 A3001 RMK AO2 SLP158 T02330228
KMXF - Maxwell Afb/Mgm, Alabama, USA
Distance from station: N 44mi, 70km
Updated: Tue, 14-Aug-2018 2:56am CDT
Clear
Clear
 Wind from calm
Wind: Calm
Temperature: 73°F , 23°C
Dew Point: 73°F , 23°C
Humidity: 100%
Barometer: 29.99 inHg , 1015.6 hPa
Clouds: Clear
Visibility: 9 miles , 14 km
2018/08/14 07:56 KMXF 140756Z AUTO 00000KT 9SM CLR 23/23 A2999 RMK AO2 SLP157 T02330228 $
KLOR - Lowe Ahp/Ft. Ruc, Alabama, USA
Distance from station: SE 44mi, 71km
Updated: Tue, 14-Aug-2018 2:58am CDT
Clear
Clear
 Wind from calm
Wind: Calm
Temperature: 72°F , 22°C
Dew Point: 72°F , 22°C
Humidity: 100%
Barometer: 30.01 inHg , 1016.3 hPa
Clouds: Clear
Visibility: 10 miles , 16 km
2018/08/14 07:58 KLOR 140758Z AUTO 00000KT 10SM CLR 22/22 A3001 RMK AO2 SLP143 T02180215
 
KGZH - Evergreen, Alabama, USA
Distance from station: WSW 46mi, 75km
Updated: Tue, 14-Aug-2018 2:53am CDT
Mist, Clear
Mist, Clear
 Wind from calm
Wind: Calm
Temperature: 72°F , 22°C
Dew Point: 70°F , 21°C
Humidity: 94%
Barometer: 30.02 inHg , 1016.6 hPa
Summary: Mist
Clouds: Clear
Visibility: 6 miles , 10 km
2018/08/14 07:53 KGZH 140753Z AUTO 00000KT 6SM BR CLR 22/21 A3002 RMK AO2 SLP162 T02220211
K0J4 - Florala Muni, Alabama, USA
Distance from station: S 47mi, 76km
Updated: Tue, 14-Aug-2018 2:58am CDT
Clear
Clear
 Wind from calm
Wind: Calm
Temperature: 73°F , 23°C
Dew Point: 70°F , 21°C
Humidity: 89%
Barometer: 30.03 inHg , 1016.9 hPa
Clouds: Clear
Visibility: 10 miles , 16 km
2018/08/14 07:58 K0J4 140758Z AUTO 00000KT 10SM CLR 23/21 A3003 RMK AO2 SLP166 T02280211 TSNO $
KOZR - Ozark/Cairns Aaf, Alabama, USA
Distance from station: SE 49mi, 78km
Updated: Tue, 14-Aug-2018 2:56am CDT
Clear
Clear
 Wind from calm
Wind: Calm
Temperature: 73°F , 23°C
Dew Point: 72°F , 22°C
Humidity: 94%
Barometer: 30.01 inHg , 1016.3 hPa
Clouds: Clear
Visibility: 10 miles , 16 km
2018/08/14 07:56 KOZR 140756Z AUTO 00000KT 10SM CLR 23/22 A3001 RMK AO2 SLP161 T02250220 $
 
KHEY - Ft Rucker/Hanche, Alabama, USA
Distance from station: ESE 49mi, 79km
Updated: Thu, 02-Aug-2018 9:18am CDT
NOT Current
Light rain, Mostly cloudy
Light rain, Mostly cloudy
 Wind from calm
Wind: Calm
Temperature: 73°F , 23°C
Dew Point: 73°F , 23°C
Humidity: 100%
Barometer: 30.01 inHg , 1016.3 hPa
Summary: Light rain
Clouds: Mostly cloudy
Visibility: 8 miles , 13 km
Cloud details: Few Clouds 800 ft
Mostly cloudy 1600 ft
Mostly cloudy 2700 ft
2018/08/02 14:18 KHEY 021418Z AUTO 00000KT 8SM -RA FEW008 BKN016 BKN027 23/23 A3001 RMK AO2 CIG 009V017 BKN016 V OVC SLP162 $
KDHN - Dothan, Alabama, USA
Distance from station: ESE 61mi, 97km
Updated: Tue, 14-Aug-2018 2:53am CDT
Mist, Clear
Mist, Clear
 Wind from calm
Wind: Calm
Temperature: 73°F , 23°C
Dew Point: 72°F , 22°C
Humidity: 94%
Barometer: 30.04 inHg , 1017.3 hPa
Summary: Mist
Clouds: Clear
Visibility: 5 miles , 8 km
2018/08/14 07:53 KDHN 140753Z AUTO 00000KT 5SM BR CLR 23/22 A3004 RMK AO2 SLP167 T02330217
KCEW - Crestview, Florida, USA
Distance from station: S 66mi, 107km
Updated: Tue, 14-Aug-2018 2:53am CDT
Mist, Clear
Mist, Clear
 Wind from calm
Wind: Calm
Temperature: 72°F , 22°C
Dew Point: 70°F , 21°C
Humidity: 94%
Barometer: 30.02 inHg , 1016.6 hPa
Summary: Mist
Clouds: Clear
Visibility: 4 miles , 6 km
2018/08/14 07:53 KCEW 140753Z AUTO 00000KT 4SM BR CLR 22/21 A3002 RMK AO2 SLP162 T02220211 $
 
KEUF - Eufaula, Alabama, USA
Distance from station: ENE 73mi, 118km
Updated: Tue, 14-Aug-2018 2:58am CDT
Clear
Clear
 Wind from calm
Wind: Calm
Temperature: 73°F , 23°C
Dew Point: 73°F , 23°C
Humidity: 100%
Barometer: 30.00 inHg , 1015.9 hPa
Clouds: Clear
Visibility: 8 miles , 13 km
2018/08/14 07:58 KEUF 140758Z AUTO 00000KT 8SM CLR 23/23 A3000 RMK AO2 SLP154 T02280228
KJKA - Gulf Shores, Alabama, USA
Distance from station: SSW 132mi, 212km
Updated: Tue, 14-Aug-2018 3:15am CDT
Clear
Clear
 Wind from calm
Wind: Calm
Temperature: 73°F , 23°C
Dew Point: 73°F , 23°C
Humidity: 100%
Barometer: 30.00 inHg , 1015.9 hPa
Clouds: Clear
Visibility: 10 miles , 16 km
2018/08/14 08:15 KJKA 140815Z AUTO 00000KT 10SM CLR 23/23 A3000 RMK AO2 T02340232
KLSF - Ft Benning/Colum, Georgia, USA
Distance from station: SNE 89mi, 143km
Updated: Tue, 14-Aug-2018 2:56am CDT
Clear
Clear
 Wind from calm
Wind: Calm
Temperature: 72°F , 22°C
Dew Point: 72°F , 22°C
Humidity: 100%
Barometer: 30.00 inHg , 1015.9 hPa
Clouds: Clear
Visibility: 10 miles , 16 km
2018/08/14 07:56 KLSF 140756Z AUTO 00000KT 10SM CLR 22/22 A3000 RMK AO2 SLP162 T02200220 $
 
KMOB - Mobile/Bates, Alabama, USA
Distance from station: SW 125mi, 202km
Updated: Tue, 14-Aug-2018 2:56am CDT
Clear
Clear
 Wind from calm
Wind: Calm
Temperature: 73°F , 23°C
Dew Point: 72°F , 22°C
Humidity: 94%
Barometer: 30.02 inHg , 1016.6 hPa
Clouds: Clear
Visibility: 10 miles , 16 km
2018/08/14 07:56 KMOB 140756Z AUTO 00000KT 10SM CLR 23/22 A3002 RMK AO2 SLP162 T02280217
KNMM - Meridian Nas, Mississippi, USA
Distance from station: WNW 151mi, 243km
Updated: Tue, 14-Aug-2018 2:56am CDT
Clear
Clear
 Wind from calm
Wind: Calm
Temperature: 73°F , 23°C
Dew Point: 72°F , 22°C
Humidity: 94%
Barometer: 30.02 inHg , 1016.6 hPa
Clouds: Clear
Visibility: 7 miles , 11 km
2018/08/14 07:56 KNMM 140756Z AUTO 00000KT 7SM CLR 23/22 A3002 RMK AO2 VIS 3/4 SOUTH SLP173 T02280217 $
KQHY - Hurlbert (Ft Walton Bch), Florida, USA
Distance from station: S 94mi, 151km
Updated: Tue, 14-Aug-2018 2:56am CDT
Clear
Clear
 Wind from calm
Wind: Calm
Temperature: 73°F , 23°C
Dew Point: 73°F , 23°C
Humidity: 100%
Barometer: 30.01 inHg , 1016.3 hPa
Clouds: Clear
Visibility: 10 miles , 16 km
2018/08/14 07:56 KQHY 140756Z AUTO 00000KT 10SM CLR 23/23 A3001 RMK AO2 SLP169 T02290226 $
 
KTCL - Tuscaloosa, Alabama, USA
Distance from station: NNW 129mi, 207km
Updated: Tue, 14-Aug-2018 2:53am CDT
Mist, Clear
Mist, Clear
 Wind from calm
Wind: Calm
Temperature: 73°F , 23°C
Dew Point: 72°F , 22°C
Humidity: 94%
Barometer: 30.00 inHg , 1015.9 hPa
Summary: Mist
Clouds: Clear
Visibility: 6 miles , 10 km
2018/08/14 07:53 KTCL 140753Z AUTO 00000KT 6SM BR CLR 23/22 A3000 RMK AO2 SLP157 T02280217
KECP - Panama City, Florida, USA
Distance from station: SSE 122mi, 196km
Updated: Tue, 14-Aug-2018 2:53am CDT
Clear
Clear
 Wind from calm
Wind: Calm
Temperature: 73°F , 23°C
Dew Point: 72°F , 22°C
Humidity: 94%
Barometer: 30.01 inHg , 1016.3 hPa
Clouds: Clear
Visibility: 10 miles , 16 km
2018/08/14 07:53 KECP 140753Z AUTO 00000KT 10SM CLR 23/22 A3001 RMK AO2 SLP171 T02330217
KCBM - Columbus Afb, Mississippi, USA
Distance from station: NW 175mi, 282km
Updated: Tue, 14-Aug-2018 2:56am CDT
Clear
Clear
 Wind from calm
Wind: Calm
Temperature: 72°F , 22°C
Dew Point: 70°F , 21°C
Humidity: 94%
Barometer: 30.00 inHg , 1015.9 hPa
Clouds: Clear
Visibility: 10 miles , 16 km
2018/08/14 07:56 KCBM 140756Z AUTO 00000KT 10SM CLR 22/21 A3000 RMK AO2 SLP160 T02180213 RVRNO $
 
KBHM - Birmingham, Alabama, USA
Distance from station: N 132mi, 212km
Updated: Tue, 14-Aug-2018 2:53am CDT
Clear
Clear
 Wind from calm
Wind: Calm
Temperature: 72°F , 22°C
Dew Point: 66°F , 19°C
Humidity: 83%
Barometer: 30.04 inHg , 1017.3 hPa
Clouds: Clear
Visibility: 10 miles , 16 km
2018/08/14 07:53 KBHM 140753Z 00000KT 10SM CLR 22/19 A3004 RMK AO2 SLP161 T02170194
KAAF - Apalachicola, Florida, USA
Distance from station: SSE 156mi, 250km
Updated: Tue, 14-Aug-2018 2:53am CDT
Nearby thunderstorm, Clear
Nearby thunderstorm, Clear
 Wind from calm
Wind: Calm
Temperature: 75°F , 24°C
Dew Point: 75°F , 24°C
Humidity: 100%
Barometer: 30.01 inHg , 1016.3 hPa
Summary: Nearby Thunderstorm
Clouds: Clear
Visibility: 10 miles , 16 km
2018/08/14 07:53 KAAF 140753Z AUTO 00000KT 10SM VCTS CLR 24/24 A3001 RMK AO2 LTG DSNT SE AND SW SLP161 T02440244 $
KATL - Atlanta, Georgia, USA
Distance from station: NE 177mi, 287km
Updated: Tue, 14-Aug-2018 2:52am CDT
Few Clouds
Few Clouds
 Wind from N
Wind: N 5 mph , 7 km/h
Temperature: 75°F , 24°C
Dew Point: 64°F , 18°C
Humidity: 69%
Barometer: 30.02 inHg , 1016.6 hPa
Clouds: Few Clouds
Visibility: 10 miles , 16 km
Cloud details: Few Clouds 25000 ft
2018/08/14 07:52 KATL 140752Z 01004KT 10SM FEW250 24/18 A3002 RMK AO2 SLP154 T02390178
 
KGPT - Gulfport, Mississippi, USA
Distance from station: SW 192mi, 309km
Updated: Tue, 14-Aug-2018 2:53am CDT
Clear
Clear
 Wind from calm
Wind: Calm
Temperature: 75°F , 24°C
Dew Point: 73°F , 23°C
Humidity: 94%
Barometer: 30.00 inHg , 1015.9 hPa
Clouds: Clear
Visibility: 10 miles , 16 km
2018/08/14 07:53 KGPT 140753Z AUTO 00000KT 10SM CLR 24/23 A3000 RMK AO2 SLP159 T02440228
KNEW - New Orleans/Lake, Louisiana, USA
Distance from station: SW 255mi, 410km
Updated: Tue, 14-Aug-2018 2:53am CDT
Clear
Clear
 Wind from W
Wind: W 3 mph , 6 km/h
Temperature: 84°F , 29°C
Heat Index: 94°F , 34°C
Dew Point: 77°F , 25°C
Humidity: 79%
Barometer: 30.01 inHg , 1016.3 hPa
Clouds: Clear
Visibility: 10 miles , 16 km
2018/08/14 07:53 KNEW 140753Z AUTO 26003KT 10SM CLR 29/25 A3001 RMK AO2 SLP156 T02890250
KP92 - Salt Point, Louisiana, USA
Distance from station: SW 347mi, 559km
Updated: Tue, 14-Aug-2018 2:53am CDT

 Wind from calm
Wind: Calm
Barometer: 30.00 inHg , 1015.9 hPa
2018/08/14 07:53 KP92 140753Z AUTO 00000KT A3000 RMK AO1 SLP160